Time;durP1;ratioP1;P1;durP2;ratioP2;P2;SDS_P1;SDS_P2;PMS_P1;PMS_P2;Temp;Humidity;BMP_temperature;BMP_pressure;BME280_temperature;BME280_humidity;BME280_pressure;Samples;Min_cycle;Max_cycle;Signal;HPM_P1;HPM_P2
2021/12/18 00:01:24;;;;;;;21.87;14.70;;;4.30;99.90;;;;;;4908763;29;20447;-96
2021/12/18 00:03:50;;;;;;;19.10;14.13;;;4.20;99.90;;;;;;4913765;29;21131;-96
2021/12/18 00:06:18;;;;;;;19.70;13.63;;;4.20;99.90;;;;;;4931907;29;20441;-96
2021/12/18 00:08:59;;;;;;;22.83;16.10;;;4.20;99.90;;;;;;4930737;29;20454;-95
2021/12/18 00:11:26;;;;;;;19.50;15.13;;;4.20;99.90;;;;;;4931458;29;20461;-96
2021/12/18 00:13:51;;;;;;;20.33;12.90;;;4.20;99.90;;;;;;4909977;29;20510;-96
2021/12/18 00:16:17;;;;;;;21.67;14.83;;;4.10;99.90;;;;;;4912168;29;20498;-96
2021/12/18 00:18:45;;;;;;;22.10;16.73;;;4.10;99.90;;;;;;4911558;29;20201;-96
2021/12/18 00:21:14;;;;;;;21.93;16.20;;;4.20;99.90;;;;;;4908750;29;20202;-96
2021/12/18 00:23:42;;;;;;;24.80;17.20;;;4.10;99.90;;;;;;4904103;29;20896;-96
2021/12/18 00:26:08;;;;;;;24.80;15.60;;;4.10;99.90;;;;;;4932391;28;20473;-96
2021/12/18 00:28:33;;;;;;;22.83;16.27;;;4.10;99.90;;;;;;4913178;29;20457;-96
2021/12/18 00:30:59;;;;;;;20.27;15.10;;;4.10;99.90;;;;;;4918109;29;20648;-96
2021/12/18 00:33:25;;;;;;;26.13;16.57;;;4.10;99.90;;;;;;4904050;29;20533;-96
2021/12/18 00:35:50;;;;;;;24.33;16.50;;;4.10;99.90;;;;;;4917991;29;20201;-96
2021/12/18 00:38:16;;;;;;;22.53;16.30;;;4.10;99.90;;;;;;4911242;29;20276;-96
2021/12/18 00:40:48;;;;;;;22.07;15.13;;;4.10;99.90;;;;;;4899436;29;20191;-96
2021/12/18 00:43:29;;;;;;;25.33;16.60;;;4.10;99.90;;;;;;4898957;29;21035;-96
2021/12/18 00:45:55;;;;;;;24.83;15.63;;;4.10;99.90;;;;;;4895966;29;20449;-96
2021/12/18 00:48:20;;;;;;;24.90;17.70;;;4.10;99.90;;;;;;4894397;29;20470;-96
2021/12/18 00:50:49;;;;;;;22.70;15.60;;;4.20;99.90;;;;;;4902312;29;20181;-96
2021/12/18 00:53:15;;;;;;;25.03;15.97;;;4.10;99.90;;;;;;4907369;29;20858;-96
2021/12/18 00:55:52;;;;;;;25.47;17.80;;;4.00;99.90;;;;;;4907685;29;20448;-96
2021/12/18 00:58:20;;;;;;;24.40;15.43;;;4.00;99.90;;;;;;4920813;29;20540;-96
2021/12/18 01:00:52;;;;;;;22.70;16.30;;;4.00;99.90;;;;;;4927571;29;20837;-96
2021/12/18 01:03:20;;;;;;;23.60;16.20;;;3.90;99.90;;;;;;4911193;29;20453;-96
2021/12/18 01:05:49;;;;;;;25.80;16.37;;;3.90;99.90;;;;;;4928410;29;20479;-96
2021/12/18 01:08:30;;;;;;;25.80;16.80;;;4.00;99.90;;;;;;4912814;29;21350;-96
2021/12/18 01:13:34;;;;;;;23.63;15.33;;;3.90;99.90;;;;;;4930210;29;20495;-96
2021/12/18 01:16:14;;;;;;;25.50;16.60;;;3.80;99.90;;;;;;4921066;29;20642;-95
2021/12/18 01:24:12;;;;;;;22.80;16.07;;;3.90;99.90;;;;;;4926645;29;20579;-96
2021/12/18 01:26:47;;;;;;;25.73;16.40;;;3.80;99.90;;;;;;4924263;29;20521;-96
2021/12/18 01:29:32;;;;;;;25.00;16.47;;;3.80;99.90;;;;;;4909902;29;20810;-96
2021/12/18 01:32:40;;;;;;;22.37;14.60;;;3.80;99.90;;;;;;4904158;29;20452;-96
2021/12/18 01:35:07;;;;;;;22.83;15.07;;;3.80;99.90;;;;;;4931118;28;20479;-96
2021/12/18 01:38:00;;;;;;;25.73;14.87;;;3.80;99.90;;;;;;4907395;29;20460;-96
2021/12/18 01:40:40;;;;;;;21.70;14.70;;;4.00;99.90;;;;;;4906357;29;20532;-96
2021/12/18 01:46:31;;;;;;;27.10;16.90;;;3.80;99.90;;;;;;4943285;29;20471;-96
2021/12/18 01:54:11;;;;;;;24.30;15.50;;;3.60;99.90;;;;;;4934553;29;20488;-96
2021/12/18 01:56:38;;;;;;;26.10;16.07;;;3.50;99.90;;;;;;4911843;29;20514;-96
2021/12/18 01:59:07;;;;;;;28.00;15.60;;;3.50;99.90;;;;;;4930464;29;20452;-96
2021/12/18 02:01:39;;;;;;;24.23;15.83;;;3.40;99.90;;;;;;4936442;29;20442;-96
2021/12/18 02:04:05;;;;;;;23.27;15.43;;;3.40;99.90;;;;;;4945146;29;20929;-96
2021/12/18 02:09:10;;;;;;;24.50;15.43;;;3.60;99.90;;;;;;5020054;23;20225;-96
2021/12/18 02:11:38;;;;;;;27.00;15.20;;;3.60;99.90;;;;;;4952774;28;20451;-93
2021/12/18 02:22:21;;;;;;;22.47;15.10;;;3.50;99.90;;;;;;4954861;28;21197;-96
2021/12/18 02:24:47;;;;;;;26.47;16.40;;;3.60;99.90;;;;;;4931628;29;20459;-96
2021/12/18 02:29:52;;;;;;;27.27;15.40;;;3.50;99.90;;;;;;4943404;28;20470;-96
2021/12/18 02:32:20;;;;;;;28.33;17.10;;;3.60;99.90;;;;;;4929068;28;20470;-96
2021/12/18 02:34:53;;;;;;;25.67;16.03;;;3.50;99.90;;;;;;4911696;28;20476;-96
2021/12/18 02:37:28;;;;;;;25.80;15.47;;;3.50;99.90;;;;;;4916526;28;20454;-96
2021/12/18 02:42:35;;;;;;;25.63;14.60;;;3.40;99.90;;;;;;4931646;28;20468;-96
2021/12/18 02:45:02;;;;;;;23.03;13.57;;;3.40;99.90;;;;;;4914656;28;20530;-96
2021/12/18 02:47:31;;;;;;;25.73;14.50;;;3.40;99.90;;;;;;4919012;28;20799;-96
2021/12/18 02:50:15;;;;;;;26.10;15.67;;;3.40;99.90;;;;;;4932325;29;20495;-96
2021/12/18 02:52:44;;;;;;;21.50;13.97;;;3.40;99.90;;;;;;4946960;28;20525;-96
2021/12/18 02:55:11;;;;;;;23.60;14.17;;;3.30;99.90;;;;;;4931271;28;20470;-96
2021/12/18 02:57:37;;;;;;;24.53;13.80;;;3.20;99.90;;;;;;4934107;28;20837;-96
2021/12/18 03:00:04;;;;;;;25.60;14.87;;;3.10;99.90;;;;;;4925804;28;20466;-96
2021/12/18 03:02:35;;;;;;;24.70;15.07;;;3.10;99.90;;;;;;4931991;28;20465;-96
2021/12/18 03:05:06;;;;;;;22.70;13.20;;;3.10;99.90;;;;;;4930150;28;24208;-96
2021/12/18 03:07:32;;;;;;;25.60;14.03;;;3.10;99.90;;;;;;4926621;28;20469;-96
2021/12/18 03:25:57;;;;;;;26.33;13.50;;;3.00;99.90;;;;;;4937772;28;20450;-96
2021/12/18 03:28:24;;;;;;;23.73;13.60;;;2.90;99.90;;;;;;4922945;29;20549;-96
2021/12/18 03:30:49;;;;;;;28.57;14.77;;;2.90;99.90;;;;;;4965037;28;20454;-96
2021/12/18 03:33:16;;;;;;;22.20;12.33;;;2.80;99.90;;;;;;4952598;28;20505;-96
2021/12/18 03:35:42;;;;;;;22.63;13.23;;;2.80;99.90;;;;;;4946507;28;20213;-96
2021/12/18 03:38:10;;;;;;;22.80;13.13;;;2.80;99.90;;;;;;4939394;28;20560;-96
2021/12/18 03:40:36;;;;;;;25.70;13.23;;;2.90;99.90;;;;;;4937044;28;20188;-96
2021/12/18 03:43:03;;;;;;;22.70;13.20;;;2.90;99.90;;;;;;4940470;28;20463;-96
2021/12/18 03:45:28;;;;;;;24.83;13.87;;;2.90;99.90;;;;;;4936792;28;20455;-96
2021/12/18 03:47:54;;;;;;;27.10;14.53;;;2.80;99.90;;;;;;4936847;28;20469;-96
2021/12/18 03:50:22;;;;;;;25.03;15.07;;;2.80;99.90;;;;;;4935227;28;20194;-96
2021/12/18 03:52:48;;;;;;;24.40;12.80;;;2.80;99.90;;;;;;4935586;28;21239;-96
2021/12/18 03:55:26;;;;;;;29.23;14.87;;;2.90;99.90;;;;;;4938155;28;20964;-96
2021/12/18 03:57:52;;;;;;;25.77;15.20;;;3.00;99.90;;;;;;4939115;29;20463;-96
2021/12/18 04:00:21;;;;;;;23.20;13.60;;;3.00;99.90;;;;;;4943252;28;20522;-96
2021/12/18 04:03:04;;;;;;;21.30;12.57;;;3.00;99.90;;;;;;4958324;28;20462;-96
2021/12/18 04:05:33;;;;;;;28.17;14.00;;;3.00;99.90;;;;;;4941537;28;20443;-96
2021/12/18 04:08:11;;;;;;;24.47;13.73;;;2.90;99.90;;;;;;4951362;28;20463;-96
2021/12/18 04:10:39;;;;;;;23.30;13.10;;;2.80;99.90;;;;;;4955748;28;20485;-96
2021/12/18 04:13:11;;;;;;;23.13;13.50;;;2.90;99.90;;;;;;4942953;29;20530;-96
2021/12/18 04:15:46;;;;;;;23.17;12.33;;;2.80;99.90;;;;;;4938795;29;20505;-96
2021/12/18 04:18:11;;;;;;;23.37;12.00;;;2.70;99.90;;;;;;4940052;29;20461;-96
2021/12/18 04:20:39;;;;;;;26.33;14.07;;;2.70;99.90;;;;;;4930067;28;20446;-96
2021/12/18 04:23:08;;;;;;;18.70;11.77;;;2.70;99.90;;;;;;4954198;28;20452;-96
2021/12/18 04:25:39;;;;;;;21.67;11.83;;;2.80;99.90;;;;;;4943266;29;20446;-96
2021/12/18 04:28:06;;;;;;;21.63;12.90;;;2.80;99.90;;;;;;4938624;28;20471;-96
2021/12/18 04:30:34;;;;;;;22.37;12.87;;;2.80;99.90;;;;;;4936404;29;20447;-96
2021/12/18 04:33:02;;;;;;;22.47;13.40;;;2.80;99.90;;;;;;4940988;28;20495;-96
2021/12/18 04:35:29;;;;;;;23.57;13.23;;;2.80;99.90;;;;;;4940346;28;20467;-96
2021/12/18 04:37:58;;;;;;;23.80;13.10;;;2.80;99.90;;;;;;4937870;29;20542;-96
2021/12/18 04:40:26;;;;;;;24.00;13.40;;;2.80;99.90;;;;;;4936518;29;20502;-96
2021/12/18 04:42:56;;;;;;;21.80;11.70;;;2.80;99.90;;;;;;4943690;28;20545;-96
2021/12/18 04:45:23;;;;;;;23.63;12.80;;;2.70;99.90;;;;;;4937850;28;20451;-96
2021/12/18 04:47:49;;;;;;;26.17;13.87;;;2.60;99.90;;;;;;4923056;28;23223;-96
2021/12/18 04:50:15;;;;;;;22.13;13.00;;;2.70;99.90;;;;;;4943316;28;20466;-96
2021/12/18 04:52:40;;;;;;;21.37;12.23;;;2.80;99.90;;;;;;4921223;28;20521;-96
2021/12/18 04:55:17;;;;;;;20.27;12.37;;;2.80;99.90;;;;;;4926669;29;21170;-96
2021/12/18 04:57:47;;;;;;;21.63;12.67;;;2.80;99.90;;;;;;4938797;29;20669;-96
2021/12/18 05:00:20;;;;;;;20.57;11.70;;;2.70;99.90;;;;;;4948268;28;20458;-96
2021/12/18 05:02:48;;;;;;;18.80;11.07;;;2.70;99.90;;;;;;4943493;28;20471;-96
2021/12/18 05:05:14;;;;;;;22.60;12.67;;;2.70;99.90;;;;;;4924831;29;20534;-96
2021/12/18 05:07:41;;;;;;;19.73;12.40;;;2.70;99.90;;;;;;4926893;28;20446;-96
2021/12/18 05:10:11;;;;;;;22.50;13.27;;;2.60;99.90;;;;;;4943246;28;20477;-96
2021/12/18 05:12:37;;;;;;;18.90;11.50;;;2.60;99.90;;;;;;4946081;28;20450;-96
2021/12/18 05:15:05;;;;;;;21.67;11.83;;;2.60;99.90;;;;;;4932517;29;20459;-96
2021/12/18 05:17:31;;;;;;;20.83;11.03;;;2.60;99.90;;;;;;4940568;28;20798;-96
2021/12/18 05:20:02;;;;;;;19.80;12.47;;;2.70;99.90;;;;;;4941881;28;20436;-96
2021/12/18 05:22:28;;;;;;;17.60;9.93;;;2.70;99.90;;;;;;4949958;29;20466;-96
2021/12/18 05:24:57;;;;;;;20.50;12.40;;;2.70;99.90;;;;;;4964774;28;20448;-96
2021/12/18 05:27:22;;;;;;;21.40;12.10;;;2.70;99.90;;;;;;4949368;29;20203;-96
2021/12/18 05:29:48;;;;;;;21.37;11.50;;;2.70;99.90;;;;;;4948116;29;20462;-96
2021/12/18 05:32:17;;;;;;;17.80;10.80;;;2.70;99.90;;;;;;4947893;28;20351;-96
2021/12/18 05:34:43;;;;;;;18.97;11.70;;;2.70;99.90;;;;;;4942256;28;20249;-96
2021/12/18 05:39:44;;;;;;;17.80;11.00;;;2.70;99.90;;;;;;4932193;28;20206;-96
2021/12/18 05:42:10;;;;;;;20.30;11.97;;;2.70;99.90;;;;;;4914608;29;20466;-96
2021/12/18 05:44:36;;;;;;;23.10;13.17;;;2.70;99.90;;;;;;4914299;28;21814;-96
2021/12/18 05:47:02;;;;;;;19.53;11.53;;;2.70;99.90;;;;;;4917262;29;20438;-95
2021/12/18 05:49:28;;;;;;;20.63;11.10;;;2.70;99.90;;;;;;4936893;28;20190;-95
2021/12/18 05:51:54;;;;;;;19.53;11.03;;;2.70;99.90;;;;;;4916261;29;20448;-95
2021/12/18 05:54:22;;;;;;;17.53;10.07;;;2.70;99.90;;;;;;4912387;28;20242;-95
2021/12/18 06:00:12;;;;;;;15.97;9.87;;;2.60;99.90;;;;;;4956012;28;20802;-96
2021/12/18 06:02:39;;;;;;;18.10;10.87;;;2.60;99.90;;;;;;4953663;28;20498;-96
2021/12/18 06:05:05;;;;;;;18.90;11.13;;;2.50;99.90;;;;;;4945051;28;20453;-96
2021/12/18 06:07:39;;;;;;;21.30;12.03;;;2.50;99.90;;;;;;4944549;29;20462;-96
2021/12/18 06:10:05;;;;;;;22.50;11.93;;;2.60;99.90;;;;;;4920604;29;20813;-96
2021/12/18 06:12:31;;;;;;;19.37;11.20;;;2.60;99.90;;;;;;4917191;29;20446;-96
2021/12/18 06:14:57;;;;;;;17.20;9.90;;;2.60;99.90;;;;;;4916753;29;20451;-96
2021/12/18 06:17:22;;;;;;;20.13;10.83;;;2.60;99.90;;;;;;4936443;28;20195;-96
2021/12/18 06:19:49;;;;;;;18.20;10.67;;;2.50;99.90;;;;;;4946602;28;20216;-96
2021/12/18 07:11:56;;;;;;;16.20;9.47;;;2.70;99.90;;;;;;1009055;23;20763;-95
2021/12/18 07:14:22;;;;;;;16.57;9.70;;;2.70;99.90;;;;;;4834804;29;20503;-96
2021/12/18 07:16:53;;;;;;;17.37;9.90;;;2.70;99.90;;;;;;4840606;29;20966;-96
2021/12/18 07:32:49;;;;;;;19.20;11.50;;;2.70;99.90;;;;;;5080604;23;20506;-95
2021/12/18 07:35:15;;;;;;;14.13;9.57;;;2.70;99.90;;;;;;4879302;29;20781;-96
2021/12/18 07:37:41;;;;;;;16.63;10.07;;;2.80;99.90;;;;;;4862855;29;20445;-95
2021/12/18 07:40:08;;;;;;;16.93;8.83;;;2.90;99.90;;;;;;4858494;29;20505;-96
2021/12/18 07:42:34;;;;;;;16.17;9.90;;;3.00;99.90;;;;;;4848926;29;20216;-95
2021/12/18 07:45:07;;;;;;;12.80;8.70;;;3.00;99.90;;;;;;4860925;29;20454;-96
2021/12/18 07:47:45;;;;;;;13.67;7.97;;;3.00;99.90;;;;;;4875783;29;21007;-96
2021/12/18 07:55:30;;;;;;;13.53;8.63;;;2.80;99.90;;;;;;4880233;29;20489;-96
2021/12/18 07:58:07;;;;;;;12.00;8.13;;;2.80;99.90;;;;;;5001765;24;20473;-96
2021/12/18 08:00:44;;;;;;;12.17;7.97;;;2.70;99.90;;;;;;4897681;29;20456;-96
2021/12/18 08:03:11;;;;;;;13.00;8.60;;;2.70;99.90;;;;;;5032591;24;20509;-96
2021/12/18 08:05:37;;;;;;;14.63;7.57;;;2.70;99.90;;;;;;4925500;24;20482;-96
2021/12/18 08:11:18;;;;;;;14.30;8.07;;;2.80;99.90;;;;;;5208307;24;20279;-96
2021/12/18 08:13:43;;;;;;;15.53;9.17;;;2.80;99.90;;;;;;4875971;29;20486;-96
2021/12/18 08:44:43;;;;;;;12.20;7.70;;;3.00;99.90;;;;;;4850524;29;20468;-96
2021/12/18 08:47:16;;;;;;;12.10;8.20;;;3.00;99.90;;;;;;4851644;29;20479;-96
2021/12/18 08:49:55;;;;;;;17.03;9.40;;;3.00;99.90;;;;;;4883952;24;20485;-95
2021/12/18 08:57:32;;;;;;;18.97;13.63;;;2.90;99.90;;;;;;4832651;29;20916;-93
2021/12/18 08:59:58;;;;;;;37.53;26.63;;;3.10;99.90;;;;;;4815483;29;20950;-93
2021/12/18 09:02:24;;;;;;;12.23;7.53;;;3.20;99.90;;;;;;4827860;29;21758;-93
2021/12/18 09:05:01;;;;;;;10.50;7.40;;;3.20;99.90;;;;;;4825051;29;20219;-93
2021/12/18 09:07:32;;;;;;;11.70;6.97;;;3.30;99.90;;;;;;4826110;29;20503;-93
2021/12/18 09:09:58;;;;;;;16.03;7.80;;;3.30;99.90;;;;;;4831298;29;20448;-93
2021/12/18 09:12:30;;;;;;;12.53;8.17;;;3.30;99.90;;;;;;4805081;29;20828;-94
2021/12/18 09:14:55;;;;;;;13.53;8.40;;;3.30;99.90;;;;;;4804993;29;20220;-95
2021/12/18 09:17:21;;;;;;;12.70;8.37;;;3.30;99.90;;;;;;4804199;29;20847;-93
2021/12/18 09:19:47;;;;;;;11.50;7.57;;;3.30;99.90;;;;;;4810191;29;20840;-92
2021/12/18 09:22:13;;;;;;;14.30;8.37;;;3.20;99.90;;;;;;4821351;29;20463;-92
2021/12/18 09:24:47;;;;;;;13.30;8.63;;;3.40;99.90;;;;;;4803458;29;20195;-94
2021/12/18 09:27:15;;;;;;;13.10;7.93;;;3.50;99.90;;;;;;4802995;29;20202;-95
2021/12/18 09:29:41;;;;;;;14.20;8.43;;;3.60;99.90;;;;;;4807209;29;20536;-93
2021/12/18 09:32:07;;;;;;;11.07;7.43;;;3.60;99.90;;;;;;4801343;29;20476;-93
2021/12/18 09:34:34;;;;;;;11.03;7.33;;;3.50;99.90;;;;;;4806732;29;20498;-94
2021/12/18 09:37:00;;;;;;;15.47;7.70;;;3.50;99.90;;;;;;4806271;29;20190;-94
2021/12/18 09:39:26;;;;;;;12.33;6.73;;;3.60;99.90;;;;;;4821140;29;21200;-92
2021/12/18 09:41:53;;;;;;;11.60;7.93;;;3.80;99.90;;;;;;4818867;29;20539;-94
2021/12/18 09:44:24;;;;;;;11.37;6.67;;;3.80;99.90;;;;;;4805121;29;21165;-93
2021/12/18 09:46:52;;;;;;;13.00;7.50;;;3.70;99.90;;;;;;4804988;29;20586;-92
2021/12/18 09:49:18;;;;;;;11.20;7.40;;;3.70;99.90;;;;;;4820249;29;20452;-94
2021/12/18 09:51:44;;;;;;;9.97;7.17;;;3.50;99.90;;;;;;4808002;29;20524;-95
2021/12/18 09:54:10;;;;;;;12.93;8.40;;;3.60;99.90;;;;;;4803904;29;20592;-94
2021/12/18 09:56:39;;;;;;;14.37;8.77;;;3.50;99.90;;;;;;4808838;29;20475;-94
2021/12/18 09:59:10;;;;;;;10.47;6.93;;;3.80;99.90;;;;;;4814954;29;20503;-94
2021/12/18 10:01:41;;;;;;;11.30;7.63;;;3.80;99.90;;;;;;4826016;29;20458;-93
2021/12/18 10:04:27;;;;;;;13.23;7.57;;;3.70;99.90;;;;;;4802830;29;20476;-93
2021/12/18 10:06:53;;;;;;;11.83;7.30;;;3.60;99.90;;;;;;4800066;29;21067;-94
2021/12/18 10:09:25;;;;;;;11.13;7.80;;;3.60;99.90;;;;;;4807712;29;20537;-93
2021/12/18 10:11:58;;;;;;;12.13;7.93;;;3.60;99.90;;;;;;4807727;29;20448;-94
2021/12/18 10:14:47;;;;;;;13.67;8.37;;;3.80;99.90;;;;;;4803023;29;20764;-94
2021/12/18 10:17:26;;;;;;;13.77;9.13;;;4.00;99.90;;;;;;4820396;29;20459;-94
2021/12/18 10:20:15;;;;;;;13.30;8.20;;;4.10;99.90;;;;;;4820752;29;20483;-95
2021/12/18 10:22:50;;;;;;;11.40;7.70;;;4.10;99.90;;;;;;4815913;29;20456;-93
2021/12/18 10:25:20;;;;;;;12.87;8.43;;;3.90;99.90;;;;;;4806239;29;20463;-93
2021/12/18 10:28:07;;;;;;;14.10;8.07;;;3.70;99.90;;;;;;4804679;29;20451;-91
2021/12/18 10:30:33;;;;;;;14.20;8.30;;;3.80;99.90;;;;;;4820603;29;20487;-93
2021/12/18 10:33:12;;;;;;;11.87;8.00;;;3.90;99.90;;;;;;4802320;29;20487;-92
2021/12/18 10:35:54;;;;;;;16.20;8.93;;;3.80;99.90;;;;;;4795784;29;20527;-93
2021/12/18 10:38:52;;;;;;;13.57;8.77;;;3.80;99.90;;;;;;4815041;29;20898;-92
2021/12/18 10:41:32;;;;;;;13.70;7.73;;;3.90;99.90;;;;;;4821194;29;21591;-92
2021/12/18 10:44:16;;;;;;;12.73;7.70;;;4.10;99.90;;;;;;4818229;29;20453;-91
2021/12/18 10:46:45;;;;;;;12.83;7.50;;;4.10;99.90;;;;;;4814731;29;20476;-92
2021/12/18 10:49:13;;;;;;;13.17;8.87;;;4.00;99.90;;;;;;4805416;29;20456;-92
2021/12/18 10:51:40;;;;;;;10.50;7.13;;;3.90;99.90;;;;;;4804806;29;20455;-91
2021/12/18 10:54:13;;;;;;;13.17;7.90;;;4.00;99.90;;;;;;4800582;29;20488;-92
2021/12/18 10:56:42;;;;;;;12.10;7.87;;;4.20;99.90;;;;;;4817988;29;21049;-92
2021/12/18 10:59:34;;;;;;;11.50;7.30;;;4.00;99.90;;;;;;4797700;29;20466;-92
2021/12/18 11:02:03;;;;;;;13.17;7.30;;;4.00;99.90;;;;;;4794924;29;20531;-91
2021/12/18 11:04:34;;;;;;;13.37;8.47;;;3.90;99.90;;;;;;4800536;29;20604;-91
2021/12/18 11:07:22;;;;;;;14.23;7.77;;;3.90;99.90;;;;;;4812072;29;20517;-93
2021/12/18 11:10:10;;;;;;;11.53;7.33;;;4.00;99.90;;;;;;4799126;29;20551;-92
2021/12/18 11:15:25;;;;;;;13.53;7.30;;;4.00;99.90;;;;;;4827091;29;20518;-94
2021/12/18 11:17:54;;;;;;;13.63;7.97;;;4.10;99.90;;;;;;4824235;29;20966;-93
2021/12/18 11:20:20;;;;;;;13.17;7.60;;;4.00;99.90;;;;;;4810813;29;20456;-94
2021/12/18 11:22:52;;;;;;;10.20;7.13;;;4.20;99.90;;;;;;4793234;29;20976;-94
2021/12/18 11:25:21;;;;;;;9.97;7.50;;;4.20;99.90;;;;;;4812924;29;20450;-92
2021/12/18 11:27:51;;;;;;;12.80;7.60;;;4.20;99.90;;;;;;4815166;29;20462;-92
2021/12/18 11:30:23;;;;;;;12.93;7.80;;;4.20;99.90;;;;;;4820393;29;20469;-93
2021/12/18 11:32:54;;;;;;;11.33;6.70;;;4.50;99.90;;;;;;4803277;29;20471;-90
2021/12/18 11:35:23;;;;;;;10.80;7.30;;;4.40;99.90;;;;;;4802341;29;20456;-91
2021/12/18 11:38:09;;;;;;;12.97;6.87;;;4.50;99.90;;;;;;4807547;29;20956;-90
2021/12/18 11:40:37;;;;;;;12.50;7.50;;;4.40;99.90;;;;;;4811662;29;20444;-91
2021/12/18 11:43:08;;;;;;;10.17;6.73;;;4.20;99.90;;;;;;4804898;29;20500;-92
2021/12/18 11:45:36;;;;;;;11.27;6.83;;;4.30;99.90;;;;;;4807081;29;20848;-92
2021/12/18 11:48:05;;;;;;;12.70;6.87;;;4.40;99.90;;;;;;4813391;29;20490;-92
2021/12/18 11:50:35;;;;;;;9.53;6.80;;;4.40;99.90;;;;;;4806421;29;20464;-92
2021/12/18 11:53:16;;;;;;;10.03;7.00;;;4.30;99.90;;;;;;4819682;29;20459;-92
2021/12/18 11:55:51;;;;;;;10.33;6.57;;;4.50;99.90;;;;;;4805587;29;20467;-91
2021/12/18 11:58:22;;;;;;;8.90;5.50;;;4.50;99.90;;;;;;4807416;29;22039;-91
2021/12/18 12:00:59;;;;;;;8.30;5.90;;;4.60;99.90;;;;;;4815327;29;20468;-91
2021/12/18 12:03:51;;;;;;;11.33;6.60;;;4.70;99.90;;;;;;4805719;29;20472;-92
2021/12/18 12:06:25;;;;;;;10.07;6.60;;;4.80;99.90;;;;;;4814556;29;20453;-92
2021/12/18 12:09:14;;;;;;;8.73;6.40;;;4.90;99.90;;;;;;4807573;29;20515;-92
2021/12/18 12:12:13;;;;;;;9.00;7.00;;;4.80;99.90;;;;;;4822113;29;21026;-93
2021/12/18 12:14:44;;;;;;;12.20;6.27;;;4.90;99.90;;;;;;4794617;29;20510;-93
2021/12/18 12:17:29;;;;;;;11.67;7.33;;;5.00;99.90;;;;;;4806156;29;20454;-93
2021/12/18 12:20:05;;;;;;;12.70;7.57;;;5.10;99.90;;;;;;4818093;29;20513;-92
2021/12/18 12:22:45;;;;;;;10.77;7.43;;;5.60;99.90;;;;;;4819597;29;20832;-92
2021/12/18 12:25:15;;;;;;;11.17;7.03;;;5.80;99.90;;;;;;4810576;29;20458;-93
2021/12/18 12:27:44;;;;;;;11.40;7.63;;;5.40;99.90;;;;;;4820360;29;20466;-93
2021/12/18 12:30:30;;;;;;;11.13;7.37;;;5.10;99.90;;;;;;4802367;29;20471;-92
2021/12/18 12:32:58;;;;;;;11.40;7.73;;;5.00;99.90;;;;;;4804312;29;20466;-94
2021/12/18 12:35:24;;;;;;;12.50;7.60;;;5.00;99.90;;;;;;4807592;29;20550;-94
2021/12/18 12:37:50;;;;;;;9.80;6.53;;;5.00;99.90;;;;;;4806845;29;20451;-93
2021/12/18 12:40:33;;;;;;;14.67;7.67;;;4.90;99.90;;;;;;4807976;29;20574;-94
2021/12/18 12:43:26;;;;;;;11.33;7.47;;;4.90;99.90;;;;;;4822886;29;20472;-93
2021/12/18 12:46:05;;;;;;;11.60;7.53;;;4.90;99.90;;;;;;4818597;29;20543;-93
2021/12/18 12:49:06;;;;;;;12.57;8.50;;;5.10;99.90;;;;;;4832092;29;20444;-94
2021/12/18 12:52:04;;;;;;;12.70;10.07;;;5.20;99.90;;;;;;4800214;29;21143;-94
2021/12/18 12:54:52;;;;;;;13.33;8.70;;;5.70;99.90;;;;;;4823658;29;20564;-96
2021/12/18 12:57:27;;;;;;;13.13;8.37;;;6.30;99.90;;;;;;4831862;29;20553;-92
2021/12/18 13:00:35;;;;;;;12.30;8.80;;;6.70;99.90;;;;;;4832664;29;20455;-93
2021/12/18 13:03:37;;;;;;;13.10;9.53;;;7.00;99.90;;;;;;4828375;29;20455;-95
2021/12/18 13:06:16;;;;;;;12.73;8.33;;;7.60;99.90;;;;;;4832619;29;20456;-93
2021/12/18 13:08:47;;;;;;;11.00;7.90;;;7.80;99.90;;;;;;4832655;29;20524;-93
2021/12/18 13:13:54;;;;;;;11.03;7.90;;;9.90;98.30;;;;;;4832843;29;20506;-92
2021/12/18 13:16:23;;;;;;;12.97;9.33;;;9.40;98.70;;;;;;4832079;29;20530;-93
2021/12/18 13:18:57;;;;;;;11.87;7.87;;;10.00;97.80;;;;;;4817530;29;20448;-93
2021/12/18 13:21:36;;;;;;;13.00;9.50;;;10.70;96.30;;;;;;4818048;29;20527;-94
2021/12/18 13:24:09;;;;;;;11.47;8.10;;;10.90;95.30;;;;;;4835932;29;20475;-95
2021/12/18 13:26:41;;;;;;;12.90;9.07;;;10.10;95.90;;;;;;4828999;29;20444;-95
2021/12/18 13:29:08;;;;;;;14.00;9.23;;;9.90;97.50;;;;;;4833624;29;20476;-95
2021/12/18 13:31:43;;;;;;;12.93;9.90;;;10.70;96.20;;;;;;4815879;29;20600;-96
2021/12/18 13:34:11;;;;;;;15.03;9.97;;;10.90;95.00;;;;;;4829724;29;21017;-95
2021/12/18 13:37:02;;;;;;;13.80;10.07;;;10.80;94.80;;;;;;4820770;29;20448;-95
2021/12/18 13:39:42;;;;;;;16.17;10.93;;;10.60;95.30;;;;;;4830699;29;20460;-95
2021/12/18 13:42:18;;;;;;;14.20;10.90;;;10.80;95.30;;;;;;4816618;29;20464;-96
2021/12/18 13:44:45;;;;;;;16.70;11.60;;;11.60;94.30;;;;;;4818232;29;20459;-96
2021/12/18 13:47:20;;;;;;;14.53;11.33;;;12.40;93.20;;;;;;4816958;29;20444;-94
2021/12/18 13:49:47;;;;;;;13.80;10.70;;;12.60;92.00;;;;;;4828908;29;20851;-95
2021/12/18 13:52:28;;;;;;;15.10;11.30;;;12.00;92.10;;;;;;4818731;29;21037;-94
2021/12/18 13:54:54;;;;;;;13.10;10.47;;;10.80;93.60;;;;;;4828539;29;20494;-95
2021/12/18 13:57:23;;;;;;;17.17;12.07;;;10.60;94.40;;;;;;4816652;29;20452;-96
2021/12/18 14:00:00;;;;;;;14.70;11.17;;;10.80;94.30;;;;;;4815581;29;20210;-95
2021/12/18 14:02:26;;;;;;;15.93;12.47;;;10.70;94.80;;;;;;4806643;29;20452;-95
2021/12/18 14:04:52;;;;;;;14.40;11.03;;;10.40;94.30;;;;;;4806620;29;20462;-95
2021/12/18 14:07:20;;;;;;;15.47;11.43;;;9.60;96.10;;;;;;4827293;29;20546;-95
2021/12/18 14:09:50;;;;;;;15.00;11.20;;;7.90;98.70;;;;;;4811470;29;21887;-95
2021/12/18 14:12:22;;;;;;;19.20;12.77;;;7.20;99.90;;;;;;4811312;29;20570;-94
2021/12/18 14:14:50;;;;;;;19.57;12.53;;;6.40;99.90;;;;;;4808376;29;20488;-95
2021/12/18 14:17:32;;;;;;;21.17;13.13;;;5.80;99.90;;;;;;4823228;29;20447;-94
2021/12/18 14:20:09;;;;;;;21.17;11.97;;;5.40;99.90;;;;;;4807337;29;20489;-95
2021/12/18 14:22:37;;;;;;;17.93;11.57;;;5.30;99.90;;;;;;4810444;29;21202;-93
2021/12/18 14:25:07;;;;;;;20.00;13.10;;;5.40;99.90;;;;;;4805998;29;20493;-94
2021/12/18 14:27:43;;;;;;;15.00;11.13;;;5.30;99.90;;;;;;4819219;29;20466;-94
2021/12/18 14:30:21;;;;;;;21.50;13.13;;;5.20;99.90;;;;;;4804182;29;20835;-93
2021/12/18 14:32:52;;;;;;;19.40;12.73;;;5.20;99.90;;;;;;4807076;29;20456;-94
2021/12/18 14:35:21;;;;;;;20.00;13.83;;;5.00;99.90;;;;;;4807067;29;21065;-93
2021/12/18 14:38:00;;;;;;;17.10;11.50;;;4.80;99.90;;;;;;4804100;29;20570;-95
2021/12/18 14:43:39;;;;;;;18.57;11.53;;;4.60;99.90;;;;;;5446605;23;20517;-96
2021/12/18 14:46:18;;;;;;;16.23;10.90;;;4.50;99.90;;;;;;4857160;29;20469;-96
2021/12/18 15:50:11;;;;;;;16.40;10.60;;;3.70;99.90;;;;;;2335584;23;20815;-94
2021/12/18 15:52:40;;;;;;;17.53;10.70;;;3.70;99.90;;;;;;4874790;29;20497;-96
2021/12/18 15:55:07;;;;;;;16.53;10.67;;;3.70;99.90;;;;;;4875096;29;20508;-95
2021/12/18 16:02:49;;;;;;;19.53;11.30;;;3.60;99.90;;;;;;4929574;24;20530;-96
2021/12/18 16:05:31;;;;;;;13.83;10.00;;;3.60;99.90;;;;;;4959257;23;20497;-96
2021/12/18 16:08:07;;;;;;;17.07;11.70;;;3.70;99.90;;;;;;4854136;29;20461;-96
2021/12/18 16:10:33;;;;;;;20.97;12.23;;;3.70;99.90;;;;;;4844227;29;20472;-96
2021/12/18 16:13:03;;;;;;;19.63;12.30;;;3.80;99.90;;;;;;4843707;29;20466;-96
2021/12/18 16:15:34;;;;;;;17.60;11.07;;;3.70;99.90;;;;;;4843720;29;20454;-96
2021/12/18 16:18:03;;;;;;;19.30;12.50;;;3.60;99.90;;;;;;4864663;29;20468;-96
2021/12/18 16:20:29;;;;;;;16.80;11.67;;;3.60;99.90;;;;;;4844455;29;20481;-96
2021/12/18 16:30:41;;;;;;;17.83;11.67;;;3.60;99.90;;;;;;4855423;29;20492;-96
2021/12/18 16:33:07;;;;;;;19.20;12.10;;;3.60;99.90;;;;;;4968870;24;20514;-96
2021/12/18 16:35:33;;;;;;;22.80;13.07;;;3.50;99.90;;;;;;4867318;29;20600;-96
2021/12/18 16:48:38;;;;;;;22.20;13.63;;;3.30;99.90;;;;;;4855256;29;20518;-96
2021/12/18 16:51:09;;;;;;;20.00;11.97;;;3.30;99.90;;;;;;4858850;29;20471;-96
2021/12/18 16:53:36;;;;;;;20.87;12.93;;;3.40;99.90;;;;;;4846713;29;20487;-96
2021/12/18 16:56:03;;;;;;;19.00;12.60;;;3.40;99.90;;;;;;4852721;29;20456;-96
2021/12/18 16:58:32;;;;;;;23.70;13.03;;;3.40;99.90;;;;;;4867910;29;20471;-96
2021/12/18 17:00:59;;;;;;;21.17;13.77;;;3.30;99.90;;;;;;4853573;29;20474;-95
2021/12/18 17:03:25;;;;;;;22.40;13.80;;;3.30;99.90;;;;;;4873445;29;20430;-96
2021/12/18 17:05:54;;;;;;;22.10;12.70;;;3.30;99.90;;;;;;4845907;29;20467;-96
2021/12/18 17:08:20;;;;;;;22.93;13.13;;;3.30;99.90;;;;;;4862251;29;20744;-96
2021/12/18 17:10:46;;;;;;;22.67;13.67;;;3.30;99.90;;;;;;4864397;29;20221;-96
2021/12/18 17:13:15;;;;;;;23.63;13.93;;;3.30;99.90;;;;;;4869100;29;20218;-96
2021/12/18 17:15:41;;;;;;;20.60;12.97;;;3.30;99.90;;;;;;4869822;29;20451;-96